Time;durP1;ratioP1;P1;durP2;ratioP2;P2;SDS_P1;SDS_P2;PMS_P1;PMS_P2;Temp;Humidity;BMP_temperature;BMP_pressure;BME280_temperature;BME280_humidity;BME280_pressure;Samples;Min_cycle;Max_cycle;Signal;HPM_P1;HPM_P2
2022/06/10 00:00:26;;;;;;;17.43;7.47;;;13.20;93.10;;;;;;4993527;28;21078;-67
2022/06/10 00:02:53;;;;;;;7.53;5.83;;;13.10;93.40;;;;;;4997554;28;20482;-66
2022/06/10 00:05:23;;;;;;;8.57;6.13;;;13.10;93.30;;;;;;5025949;28;20490;-67
2022/06/10 00:07:50;;;;;;;6.20;4.43;;;13.00;93.30;;;;;;5026752;28;20775;-67
2022/06/10 00:10:20;;;;;;;8.30;6.47;;;13.00;93.40;;;;;;5022034;28;20475;-67
2022/06/10 00:12:47;;;;;;;8.27;6.27;;;13.00;93.30;;;;;;5025888;28;20485;-67
2022/06/10 00:15:15;;;;;;;16.97;5.77;;;12.90;93.20;;;;;;5025802;28;20578;-67
2022/06/10 00:17:43;;;;;;;8.17;5.93;;;12.80;93.20;;;;;;5027170;28;20926;-67
2022/06/10 00:20:12;;;;;;;8.00;6.03;;;12.80;93.30;;;;;;5020826;28;20748;-67
2022/06/10 00:22:39;;;;;;;12.40;6.80;;;12.70;93.30;;;;;;5025271;28;20487;-67
2022/06/10 00:25:08;;;;;;;4.30;3.90;;;12.70;93.30;;;;;;5025650;28;20489;-67
2022/06/10 00:27:34;;;;;;;13.70;8.93;;;12.70;93.30;;;;;;5012124;28;20904;-67
2022/06/10 00:30:01;;;;;;;15.13;4.90;;;12.70;93.50;;;;;;5012137;28;20497;-67
2022/06/10 00:32:32;;;;;;;8.70;7.33;;;12.70;93.40;;;;;;5026044;28;20486;-67
2022/06/10 00:34:59;;;;;;;6.40;4.90;;;;;;;;;;5020764;28;20488;-67
2022/06/10 00:37:27;;;;;;;9.27;7.67;;;12.50;93.70;;;;;;5020046;28;20486;-67
2022/06/10 00:39:55;;;;;;;8.67;5.10;;;12.40;94.30;;;;;;5000918;28;20486;-67
2022/06/10 00:42:22;;;;;;;9.30;7.57;;;12.20;94.50;;;;;;5019623;28;21042;-67
2022/06/10 00:44:52;;;;;;;7.33;5.93;;;12.20;94.20;;;;;;5015280;28;20521;-66
2022/06/10 00:47:22;;;;;;;14.13;6.93;;;12.10;94.00;;;;;;5023826;28;20979;-67
2022/06/10 00:49:53;;;;;;;6.30;5.57;;;11.90;94.20;;;;;;5022040;28;20488;-66
2022/06/10 00:52:28;;;;;;;5.07;4.60;;;11.80;94.80;;;;;;5031342;28;20506;-66
2022/06/10 00:54:55;;;;;;;6.67;4.27;;;11.70;95.40;;;;;;5028126;28;20495;-66
2022/06/10 00:57:27;;;;;;;8.00;5.17;;;11.50;96.20;;;;;;5021888;28;20490;-67
2022/06/10 00:59:59;;;;;;;4.33;3.93;;;11.60;95.90;;;;;;5031700;28;21033;-67
2022/06/10 01:02:30;;;;;;;6.30;5.70;;;11.60;95.20;;;;;;5033301;28;20486;-66
2022/06/10 01:05:00;;;;;;;5.97;3.80;;;11.60;95.10;;;;;;5037361;28;20567;-66
2022/06/10 01:07:32;;;;;;;6.10;5.40;;;11.50;95.10;;;;;;5022629;28;20488;-66
2022/06/10 01:10:00;;;;;;;2.97;2.67;;;11.60;95.30;;;;;;5032611;28;21064;-67
2022/06/10 01:12:50;;;;;;;7.63;6.63;;;11.60;95.10;;;;;;5028743;28;20483;-67
2022/06/10 01:15:28;;;;;;;3.40;3.03;;;11.70;94.80;;;;;;5013539;28;20485;-67
2022/06/10 01:18:21;;;;;;;5.10;4.00;;;11.70;94.80;;;;;;5016913;28;20483;-67
2022/06/10 01:21:03;;;;;;;4.53;4.13;;;11.70;94.70;;;;;;5031749;28;20489;-66
2022/06/10 01:24:01;;;;;;;11.53;4.50;;;11.70;94.60;;;;;;5032616;28;20640;-66
2022/06/10 01:30:11;;;;;;;4.03;3.70;;;11.60;94.70;;;;;;5031714;28;20503;-66
2022/06/10 01:32:45;;;;;;;8.23;5.10;;;;;;;;;;5036687;28;20487;-67
2022/06/10 01:35:20;;;;;;;4.17;3.77;;;11.60;94.60;;;;;;5025261;28;20483;-66
2022/06/10 01:37:58;;;;;;;3.43;3.13;;;11.60;94.60;;;;;;5040410;28;20587;-67
2022/06/10 01:40:34;;;;;;;15.13;6.90;;;11.60;94.80;;;;;;5030925;28;20560;-66
2022/06/10 01:43:07;;;;;;;4.00;3.60;;;11.40;95.30;;;;;;5039818;28;20498;-65
2022/06/10 01:45:37;;;;;;;14.53;6.03;;;11.30;95.90;;;;;;5035729;28;20493;-66
2022/06/10 01:48:10;;;;;;;3.97;3.57;;;11.30;95.90;;;;;;5034101;28;20481;-67
2022/06/10 01:50:46;;;;;;;6.00;5.40;;;11.40;95.50;;;;;;5033749;28;20873;-67
2022/06/10 01:53:20;;;;;;;4.87;3.50;;;11.40;95.40;;;;;;5012229;28;20551;-66
2022/06/10 01:55:53;;;;;;;4.40;4.00;;;11.50;95.10;;;;;;5028790;28;20484;-67
2022/06/10 01:58:25;;;;;;;4.87;3.77;;;11.50;95.40;;;;;;5026889;28;20489;-66
2022/06/10 02:00:57;;;;;;;4.20;3.10;;;11.50;95.30;;;;;;5018446;28;20857;-66
2022/06/10 02:03:31;;;;;;;10.63;4.23;;;11.50;95.10;;;;;;5034045;28;20469;-66
2022/06/10 02:06:01;;;;;;;3.40;2.90;;;11.40;94.80;;;;;;5040262;28;20982;-66
2022/06/10 02:08:32;;;;;;;6.03;5.43;;;11.60;95.00;;;;;;5039160;28;20486;-66
2022/06/10 02:11:03;;;;;;;3.97;3.37;;;11.40;94.70;;;;;;5035588;28;20482;-66
2022/06/10 02:13:34;;;;;;;7.80;5.67;;;11.40;94.80;;;;;;5037811;28;20482;-66
2022/06/10 02:16:03;;;;;;;9.70;4.57;;;11.30;94.70;;;;;;5038685;28;20993;-66
2022/06/10 02:18:39;;;;;;;5.90;4.90;;;11.40;94.70;;;;;;5039160;28;20793;-66
2022/06/10 02:21:11;;;;;;;12.73;3.30;;;11.40;94.60;;;;;;5033320;28;20480;-66
2022/06/10 02:23:44;;;;;;;6.60;5.60;;;11.40;94.70;;;;;;5034881;28;20501;-66
2022/06/10 02:26:11;;;;;;;4.60;3.10;;;11.40;94.70;;;;;;5037782;28;20475;-66
2022/06/10 02:28:43;;;;;;;10.03;3.87;;;11.40;94.50;;;;;;5038410;28;20556;-66
2022/06/10 02:31:16;;;;;;;6.10;3.67;;;11.40;94.60;;;;;;5035018;28;20491;-66
2022/06/10 02:33:45;;;;;;;5.40;4.03;;;11.40;94.80;;;;;;5009879;28;20472;-66
2022/06/10 02:36:17;;;;;;;5.80;3.63;;;11.40;94.70;;;;;;5039222;28;20481;-66
2022/06/10 02:38:55;;;;;;;5.63;5.07;;;11.40;94.60;;;;;;5026537;28;20487;-67
2022/06/10 02:41:32;;;;;;;7.90;6.33;;;11.40;94.60;;;;;;5037768;28;20485;-67
2022/06/10 02:44:07;;;;;;;3.13;2.80;;;11.40;94.30;;;;;;5037778;28;20481;-66
2022/06/10 02:46:39;;;;;;;13.37;5.10;;;11.40;94.20;;;;;;5035041;28;20482;-66
2022/06/10 02:49:09;;;;;;;4.60;4.10;;;11.40;94.10;;;;;;5034142;28;20498;-66
2022/06/10 02:51:37;;;;;;;30.87;5.37;;;11.20;93.80;;;;;;5038300;28;20499;-65
2022/06/10 02:54:07;;;;;;;4.20;3.70;;;11.00;94.50;;;;;;5023413;28;20495;-66
2022/06/10 02:56:34;;;;;;;6.53;4.73;;;10.70;95.30;;;;;;5036268;28;21060;-66
2022/06/10 03:02:00;;;;;;;4.50;3.20;;;;;;;;;;5031930;28;21098;-66
2022/06/10 03:04:38;;;;;;;6.90;6.03;;;10.80;95.00;;;;;;5003320;28;20483;-66
2022/06/10 03:07:14;;;;;;;9.63;3.80;;;10.70;94.70;;;;;;5031091;28;20884;-66
2022/06/10 03:09:53;;;;;;;4.83;3.90;;;10.50;95.40;;;;;;5013096;28;20486;-66
2022/06/10 03:12:28;;;;;;;5.07;4.60;;;10.50;95.80;;;;;;5030924;28;20818;-66
2022/06/10 03:15:07;;;;;;;12.33;3.83;;;10.60;95.50;;;;;;5006292;28;20506;-66
2022/06/10 03:17:41;;;;;;;10.43;4.50;;;10.60;95.10;;;;;;5014468;28;20851;-65
2022/06/10 03:20:16;;;;;;;13.53;3.30;;;10.70;94.90;;;;;;5034921;28;20482;-65
2022/06/10 03:23:03;;;;;;;5.60;4.27;;;10.70;95.00;;;;;;5037545;28;20841;-65
2022/06/10 03:25:36;;;;;;;7.07;6.37;;;10.70;94.70;;;;;;5013320;28;20481;-65
2022/06/10 03:28:10;;;;;;;4.27;3.87;;;10.70;94.70;;;;;;5034902;28;20517;-65
2022/06/10 03:30:44;;;;;;;13.83;5.33;;;10.70;94.50;;;;;;5034174;28;20482;-66
2022/06/10 03:33:15;;;;;;;4.50;4.10;;;10.70;94.50;;;;;;5037626;28;20485;-66
2022/06/10 03:35:46;;;;;;;20.03;4.53;;;10.70;94.40;;;;;;5035996;28;20484;-66
2022/06/10 03:38:14;;;;;;;3.57;3.27;;;10.70;94.50;;;;;;5037121;28;20489;-66
2022/06/10 03:40:42;;;;;;;5.20;4.70;;;10.70;94.90;;;;;;5034026;28;20549;-66
2022/06/10 03:43:12;;;;;;;12.50;4.33;;;10.70;95.10;;;;;;5030881;28;20482;-66
2022/06/10 03:45:42;;;;;;;4.20;3.40;;;10.80;95.10;;;;;;5036791;28;20567;-66
2022/06/10 03:48:11;;;;;;;5.37;3.73;;;10.80;94.90;;;;;;5036936;28;20482;-67
2022/06/10 03:50:40;;;;;;;7.90;6.20;;;10.90;94.70;;;;;;5031151;28;20854;-66
2022/06/10 03:53:13;;;;;;;3.83;3.53;;;10.90;94.50;;;;;;5035953;28;20498;-66
2022/06/10 03:55:40;;;;;;;4.17;2.90;;;10.70;94.40;;;;;;5034708;28;20502;-66
2022/06/10 03:58:07;;;;;;;4.80;4.37;;;10.60;94.80;;;;;;5038478;28;20557;-66
2022/06/10 04:00:34;;;;;;;8.60;7.60;;;10.50;94.90;;;;;;5031760;28;20506;-66
2022/06/10 04:03:01;;;;;;;4.13;3.50;;;10.60;94.90;;;;;;5038671;28;20483;-66
2022/06/10 04:05:27;;;;;;;6.70;5.40;;;10.60;94.90;;;;;;5011273;28;20477;-66
2022/06/10 04:07:54;;;;;;;12.37;4.90;;;10.60;94.80;;;;;;5038744;28;20488;-66
2022/06/10 04:10:27;;;;;;;29.30;4.37;;;10.70;95.00;;;;;;5035052;28;20549;-66
2022/06/10 04:12:54;;;;;;;3.60;3.30;;;10.70;95.20;;;;;;5034894;28;20483;-66
2022/06/10 04:15:24;;;;;;;6.50;5.83;;;10.70;95.30;;;;;;5033899;28;20494;-66
2022/06/10 04:17:51;;;;;;;10.93;4.27;;;10.80;95.40;;;;;;5035385;28;20587;-66
2022/06/10 04:20:20;;;;;;;5.23;4.27;;;10.90;95.60;;;;;;5033377;28;20482;-66
2022/06/10 04:22:47;;;;;;;6.47;5.10;;;11.00;95.70;;;;;;5036451;28;20493;-66
2022/06/10 04:25:14;;;;;;;14.00;3.73;;;11.00;95.60;;;;;;5035226;28;20487;-66
2022/06/10 04:27:43;;;;;;;5.00;4.50;;;11.10;95.50;;;;;;5037411;28;20498;-66
2022/06/10 04:30:24;;;;;;;5.27;4.77;;;11.10;95.40;;;;;;5033701;28;20499;-66
2022/06/10 04:32:51;;;;;;;5.13;4.63;;;11.20;95.40;;;;;;5037090;28;20483;-66
2022/06/10 04:35:19;;;;;;;5.43;3.37;;;11.20;95.30;;;;;;5038162;28;21311;-66
2022/06/10 04:37:46;;;;;;;11.10;4.27;;;11.30;95.30;;;;;;5037272;28;20490;-66
2022/06/10 04:40:16;;;;;;;5.90;4.13;;;11.30;95.60;;;;;;5035851;28;20501;-66
2022/06/10 04:42:45;;;;;;;14.47;5.13;;;11.40;96.00;;;;;;5036876;28;20515;-66
2022/06/10 04:45:13;;;;;;;12.87;5.30;;;;;;;;;;5035626;28;20479;-66
2022/06/10 04:47:40;;;;;;;6.90;5.33;;;11.40;96.50;;;;;;5036740;28;20870;-66
2022/06/10 04:50:08;;;;;;;7.57;5.10;;;11.50;96.50;;;;;;5033266;28;20929;-66
2022/06/10 04:52:35;;;;;;;11.13;7.00;;;11.50;97.10;;;;;;5035431;28;20719;-66
2022/06/10 04:55:02;;;;;;;5.97;4.90;;;11.60;97.40;;;;;;5037174;28;20523;-66
2022/06/10 04:57:28;;;;;;;11.23;7.13;;;11.70;97.50;;;;;;5040049;28;20480;-66
2022/06/10 04:59:56;;;;;;;5.53;4.30;;;11.90;97.40;;;;;;5033942;28;20526;-66
2022/06/10 05:02:23;;;;;;;9.77;6.87;;;12.00;97.40;;;;;;5040801;28;20481;-66
2022/06/10 05:04:51;;;;;;;6.87;5.10;;;;;;;;;;5038297;28;20488;-67
2022/06/10 05:07:18;;;;;;;9.50;5.53;;;12.40;97.50;;;;;;5041588;28;20619;-66
2022/06/10 05:09:45;;;;;;;5.40;4.53;;;12.50;97.50;;;;;;5038936;28;20485;-66
2022/06/10 05:12:12;;;;;;;6.10;5.03;;;;;;;;;;5045277;28;20497;-66
2022/06/10 05:14:38;;;;;;;6.53;4.70;;;12.80;97.30;;;;;;5037714;28;20499;-66
2022/06/10 05:17:07;;;;;;;9.40;5.23;;;12.90;97.30;;;;;;5041743;28;20485;-66
2022/06/10 05:19:34;;;;;;;8.23;6.40;;;13.10;97.20;;;;;;5042824;28;20485;-67
2022/06/10 05:22:01;;;;;;;4.60;4.20;;;13.20;97.60;;;;;;5041056;28;20478;-66
2022/06/10 05:24:28;;;;;;;7.60;6.40;;;13.30;97.80;;;;;;5042527;28;20483;-66
2022/06/10 05:26:54;;;;;;;11.50;5.20;;;13.50;97.50;;;;;;5040427;28;21025;-66
2022/06/10 05:29:21;;;;;;;6.97;6.27;;;13.60;97.40;;;;;;5035776;28;21010;-66
2022/06/10 05:31:48;;;;;;;7.03;5.07;;;13.60;97.70;;;;;;5039735;28;20482;-66
2022/06/10 05:37:00;;;;;;;4.17;3.77;;;13.60;98.20;;;;;;5036506;28;20899;-66
2022/06/10 05:39:27;;;;;;;8.90;7.93;;;13.70;98.20;;;;;;5034440;28;21071;-66
2022/06/10 05:42:06;;;;;;;12.50;4.63;;;13.90;98.20;;;;;;5039305;28;20496;-66
2022/06/10 05:44:32;;;;;;;7.30;6.43;;;14.10;98.90;;;;;;5037894;28;20466;-66
2022/06/10 05:47:00;;;;;;;7.27;4.13;;;14.30;98.80;;;;;;5033393;28;20983;-66
2022/06/10 05:49:29;;;;;;;9.33;7.60;;;14.40;98.60;;;;;;5036262;28;20573;-66
2022/06/10 05:51:56;;;;;;;8.63;4.67;;;14.60;98.60;;;;;;5037969;28;20481;-66
2022/06/10 05:54:24;;;;;;;20.03;6.77;;;14.80;98.40;;;;;;5025977;28;20498;-66
2022/06/10 05:56:51;;;;;;;6.23;5.63;;;14.90;98.20;;;;;;5028889;28;20487;-66
2022/06/10 05:59:19;;;;;;;11.97;5.73;;;15.00;98.40;;;;;;5034284;28;20486;-65
2022/06/10 06:01:46;;;;;;;18.47;5.63;;;15.00;98.50;;;;;;5039706;28;20499;-65
2022/06/10 06:04:13;;;;;;;9.70;6.10;;;15.20;98.30;;;;;;5040094;28;20505;-66
2022/06/10 06:06:43;;;;;;;7.77;5.20;;;15.20;99.20;;;;;;5042208;28;20488;-66
2022/06/10 06:09:13;;;;;;;14.37;5.40;;;15.30;99.20;;;;;;5036435;28;20578;-66
2022/06/10 06:11:40;;;;;;;6.60;5.87;;;15.40;98.80;;;;;;5037223;28;20569;-66
2022/06/10 06:14:07;;;;;;;15.63;6.83;;;15.50;99.60;;;;;;5040374;28;20478;-66
2022/06/10 06:16:35;;;;;;;9.63;6.20;;;15.60;99.20;;;;;;5038936;28;21302;-65
2022/06/10 06:19:02;;;;;;;9.00;5.80;;;15.70;99.40;;;;;;5036534;28;20495;-66
2022/06/10 06:21:29;;;;;;;7.90;6.87;;;15.70;99.90;;;;;;5034513;28;21007;-66
2022/06/10 06:23:57;;;;;;;6.23;4.73;;;15.90;99.30;;;;;;5038451;28;20574;-65
2022/06/10 06:26:23;;;;;;;11.00;5.20;;;16.00;99.30;;;;;;5038418;28;21183;-66
2022/06/10 06:28:50;;;;;;;16.17;6.63;;;;;;;;;;5036449;28;21032;-66
2022/06/10 06:31:17;;;;;;;10.60;4.70;;;16.30;99.90;;;;;;5037647;28;20485;-66
2022/06/10 06:33:44;;;;;;;9.40;5.87;;;16.40;99.20;;;;;;5038133;28;21013;-66
2022/06/10 06:36:17;;;;;;;6.47;4.63;;;16.50;99.50;;;;;;5038578;28;20846;-66
2022/06/10 06:38:44;;;;;;;10.03;6.60;;;16.60;99.50;;;;;;5024712;28;20486;-66
2022/06/10 06:41:12;;;;;;;9.13;6.43;;;16.70;99.80;;;;;;5037601;28;20842;-67
2022/06/10 06:43:39;;;;;;;31.43;7.00;;;16.80;99.70;;;;;;5037399;28;20480;-66
2022/06/10 06:46:05;;;;;;;10.17;5.27;;;16.90;99.00;;;;;;5039410;28;20964;-67
2022/06/10 06:48:32;;;;;;;11.27;6.13;;;17.00;98.60;;;;;;5037350;28;21023;-66
2022/06/10 06:50:59;;;;;;;7.03;5.10;;;17.20;98.30;;;;;;5037966;28;20488;-66
2022/06/10 06:53:26;;;;;;;9.20;6.80;;;17.50;98.40;;;;;;5038025;28;20488;-66
2022/06/10 06:55:53;;;;;;;6.87;5.00;;;17.60;98.10;;;;;;5039668;28;20727;-66
2022/06/10 06:58:21;;;;;;;13.40;5.43;;;17.80;97.40;;;;;;5037635;28;20480;-67
2022/06/10 07:00:48;;;;;;;8.40;4.97;;;18.00;96.90;;;;;;5011435;28;20485;-67
2022/06/10 07:03:16;;;;;;;9.30;5.27;;;18.10;96.70;;;;;;5034877;28;20981;-66
2022/06/10 07:05:43;;;;;;;24.53;5.20;;;18.20;96.20;;;;;;5039191;28;20486;-67
2022/06/10 07:08:10;;;;;;;9.47;5.13;;;18.40;96.40;;;;;;5036804;28;20592;-67
2022/06/10 07:10:37;;;;;;;8.53;5.70;;;18.50;95.70;;;;;;5034866;28;20531;-67
2022/06/10 07:13:04;;;;;;;12.27;4.50;;;18.60;95.20;;;;;;5036830;28;20492;-67
2022/06/10 07:15:32;;;;;;;7.57;5.70;;;18.70;95.30;;;;;;5039517;28;20487;-67
2022/06/10 07:18:00;;;;;;;12.63;5.83;;;18.90;95.00;;;;;;5041139;28;20480;-66
2022/06/10 07:20:30;;;;;;;27.93;6.13;;;19.20;95.60;;;;;;5020540;28;20476;-67
2022/06/10 07:22:58;;;;;;;7.53;5.30;;;19.30;95.20;;;;;;5035029;28;20476;-67
2022/06/10 07:25:26;;;;;;;10.70;7.23;;;19.40;95.10;;;;;;5035408;28;20487;-67
2022/06/10 07:27:55;;;;;;;16.43;5.73;;;19.60;95.10;;;;;;5031898;28;20615;-67
2022/06/10 07:30:24;;;;;;;10.57;6.77;;;19.60;93.40;;;;;;5031625;28;21034;-67
2022/06/10 07:32:53;;;;;;;7.37;4.50;;;19.80;94.00;;;;;;5034825;28;20827;-67
2022/06/10 07:35:21;;;;;;;8.63;5.40;;;20.00;94.40;;;;;;5034903;28;21249;-67
2022/06/10 07:37:49;;;;;;;9.60;6.00;;;20.10;93.60;;;;;;5038764;28;20603;-68
2022/06/10 07:43:00;;;;;;;9.73;4.87;;;20.50;92.80;;;;;;5035688;28;21267;-67
2022/06/10 07:45:28;;;;;;;6.93;6.00;;;20.50;93.10;;;;;;5036483;28;20476;-67
2022/06/10 07:47:56;;;;;;;16.27;4.53;;;20.70;93.40;;;;;;5037060;28;20556;-67
2022/06/10 07:50:23;;;;;;;7.90;5.80;;;21.00;93.60;;;;;;5026017;28;20583;-67
2022/06/10 07:52:50;;;;;;;8.60;4.80;;;21.00;92.20;;;;;;5031035;28;20497;-67
2022/06/10 07:55:17;;;;;;;8.63;5.07;;;21.30;91.70;;;;;;5036726;28;20488;-67
2022/06/10 07:57:44;;;;;;;9.50;5.30;;;21.30;92.40;;;;;;5036239;28;20491;-67
2022/06/10 08:00:12;;;;;;;10.10;4.90;;;;;;;;;;5034638;28;20491;-67
2022/06/10 08:02:39;;;;;;;8.53;4.47;;;21.40;90.40;;;;;;5025863;28;21227;-67
2022/06/10 08:05:09;;;;;;;5.53;3.90;;;21.30;90.00;;;;;;5023459;28;20483;-67
2022/06/10 08:07:37;;;;;;;16.93;7.10;;;21.30;90.70;;;;;;5033588;28;20519;-68
2022/06/10 08:10:05;;;;;;;6.23;4.17;;;21.30;90.10;;;;;;5034954;28;20483;-67
2022/06/10 08:12:31;;;;;;;12.17;6.27;;;21.30;88.10;;;;;;5037050;28;20492;-68
2022/06/10 08:14:58;;;;;;;7.10;5.00;;;21.50;90.30;;;;;;5036551;28;20888;-67
2022/06/10 08:17:25;;;;;;;15.30;5.80;;;21.50;89.60;;;;;;5037917;28;20483;-67
2022/06/10 08:19:52;;;;;;;7.30;4.60;;;21.40;88.00;;;;;;5033232;28;20497;-68
2022/06/10 08:22:35;;;;;;;5.73;5.13;;;21.30;90.20;;;;;;5010040;28;20879;-67
2022/06/10 08:25:04;;;;;;;6.70;4.50;;;21.40;89.50;;;;;;5029306;28;20525;-68
2022/06/10 08:27:30;;;;;;;11.73;6.03;;;21.70;89.20;;;;;;5034751;28;20742;-68
2022/06/10 08:29:58;;;;;;;10.07;4.50;;;21.90;89.60;;;;;;5031217;28;21037;-67
2022/06/10 08:32:25;;;;;;;10.83;4.60;;;22.00;88.10;;;;;;5032420;28;20845;-69
2022/06/10 08:34:52;;;;;;;5.70;3.77;;;22.10;89.50;;;;;;5034329;28;20499;-67
2022/06/10 08:37:20;;;;;;;4.10;3.70;;;22.20;86.80;;;;;;5031104;28;20490;-68
2022/06/10 08:39:47;;;;;;;9.33;5.70;;;22.20;85.10;;;;;;5032458;28;20486;-68
2022/06/10 08:42:26;;;;;;;5.03;4.13;;;22.50;90.70;;;;;;5033443;28;20494;-68
2022/06/10 08:44:55;;;;;;;9.90;4.13;;;22.70;87.50;;;;;;5010869;28;20483;-68
2022/06/10 08:47:43;;;;;;;12.13;5.80;;;22.90;86.30;;;;;;5032405;28;20955;-68
2022/06/10 08:50:54;;;;;;;9.87;4.80;;;23.00;87.30;;;;;;5032655;28;20760;-65
2022/06/10 08:53:50;;;;;;;9.23;5.37;;;23.10;85.20;;;;;;5024057;28;20492;-65
2022/06/10 08:56:22;;;;;;;5.50;3.57;;;23.30;85.40;;;;;;5030578;28;20466;-64
2022/06/10 08:58:59;;;;;;;5.60;5.03;;;23.30;83.80;;;;;;5034342;28;20483;-65
2022/06/10 09:01:28;;;;;;;6.07;5.10;;;23.20;85.00;;;;;;5031093;28;20493;-65
2022/06/10 09:04:03;;;;;;;6.77;3.63;;;23.30;82.80;;;;;;5005805;28;20510;-65
2022/06/10 09:06:36;;;;;;;21.13;5.23;;;23.40;86.20;;;;;;5036246;28;20564;-65
2022/06/10 09:09:07;;;;;;;7.17;4.10;;;23.30;79.90;;;;;;5019669;28;20516;-65
2022/06/10 09:11:39;;;;;;;8.13;4.57;;;23.20;80.90;;;;;;5022689;28;20487;-65
2022/06/10 09:14:14;;;;;;;6.60;3.87;;;23.10;80.50;;;;;;5038717;28;20484;-66
2022/06/10 09:16:50;;;;;;;9.87;4.17;;;23.10;79.90;;;;;;5036466;28;20482;-66
2022/06/10 09:19:23;;;;;;;4.83;3.17;;;23.20;78.80;;;;;;5031845;28;20907;-66
2022/06/10 09:22:00;;;;;;;5.90;3.40;;;23.10;83.80;;;;;;5035095;28;20479;-67
2022/06/10 09:24:35;;;;;;;14.07;3.67;;;22.90;82.50;;;;;;5008166;28;20486;-68
2022/06/10 09:27:07;;;;;;;8.47;3.33;;;23.00;84.10;;;;;;5030737;28;20490;-67
2022/06/10 09:29:37;;;;;;;28.27;5.03;;;23.20;84.00;;;;;;5032109;28;20490;-67
2022/06/10 09:32:10;;;;;;;5.50;3.37;;;23.40;85.40;;;;;;5038549;28;20519;-68
2022/06/10 09:34:49;;;;;;;6.57;4.40;;;23.50;80.80;;;;;;5034736;28;20495;-67
2022/06/10 09:37:24;;;;;;;3.80;2.80;;;23.50;77.20;;;;;;5013311;28;20490;-67
2022/06/10 09:43:02;;;;;;;5.30;4.67;;;23.70;81.50;;;;;;5042581;28;20601;-67
2022/06/10 09:45:37;;;;;;;14.57;3.90;;;23.80;84.10;;;;;;5035672;28;20479;-68
2022/06/10 09:48:18;;;;;;;5.63;3.27;;;23.70;79.20;;;;;;5028077;28;21293;-67
2022/06/10 09:50:54;;;;;;;15.53;3.80;;;23.60;79.80;;;;;;5037290;28;20486;-68
2022/06/10 09:53:36;;;;;;;4.83;4.43;;;23.80;79.60;;;;;;5040192;28;20490;-67
2022/06/10 09:56:28;;;;;;;3.93;2.90;;;23.80;85.00;;;;;;5025457;28;20475;-66
2022/06/10 09:59:10;;;;;;;6.77;3.63;;;24.10;84.40;;;;;;5035342;28;20491;-68
2022/06/10 10:01:41;;;;;;;4.53;4.13;;;24.30;82.20;;;;;;5025472;28;21288;-67
2022/06/10 10:04:41;;;;;;;6.47;3.27;;;24.20;77.40;;;;;;5035334;28;20564;-67
2022/06/10 10:07:14;;;;;;;4.83;3.57;;;24.20;79.30;;;;;;5038725;28;20491;-68
2022/06/10 10:09:49;;;;;;;6.90;3.00;;;24.20;82.10;;;;;;5036289;28;20881;-68
2022/06/10 10:12:25;;;;;;;11.77;4.40;;;24.20;80.60;;;;;;5036826;28;20501;-68
2022/06/10 10:15:00;;;;;;;14.10;3.83;;;24.10;78.60;;;;;;5038959;28;20479;-67
2022/06/10 10:17:51;;;;;;;11.60;5.30;;;24.00;80.40;;;;;;5011680;28;20471;-68
2022/06/10 10:20:24;;;;;;;6.13;3.50;;;23.90;79.60;;;;;;5034598;28;20518;-67
2022/06/10 10:23:04;;;;;;;6.60;3.60;;;23.50;79.60;;;;;;5038383;28;20553;-68
2022/06/10 10:25:31;;;;;;;8.00;4.80;;;23.40;80.00;;;;;;5010330;28;20651;-67
2022/06/10 10:28:02;;;;;;;5.40;3.87;;;23.60;85.10;;;;;;5038419;28;20479;-68
2022/06/10 10:30:36;;;;;;;6.83;3.97;;;23.80;81.70;;;;;;5010460;28;20486;-68
2022/06/10 10:33:05;;;;;;;7.30;3.57;;;23.70;78.90;;;;;;5028403;28;21371;-67
2022/06/10 10:35:37;;;;;;;7.30;4.50;;;23.80;80.10;;;;;;5037933;28;20850;-68
2022/06/10 10:38:06;;;;;;;8.07;3.30;;;24.00;77.70;;;;;;5035854;28;20476;-67
2022/06/10 10:40:39;;;;;;;6.10;5.13;;;24.00;79.40;;;;;;5034501;28;20492;-67
2022/06/10 10:43:15;;;;;;;5.33;2.73;;;24.20;80.20;;;;;;5040930;28;20484;-68
2022/06/10 10:45:54;;;;;;;9.20;3.30;;;24.40;77.90;;;;;;5036775;28;20496;-68
2022/06/10 10:48:26;;;;;;;21.10;3.83;;;24.60;77.10;;;;;;5040254;28;20856;-68
2022/06/10 10:50:56;;;;;;;11.53;4.80;;;24.50;74.90;;;;;;5032957;28;20552;-68
2022/06/10 10:53:27;;;;;;;6.50;4.40;;;24.60;79.30;;;;;;5038997;28;20486;-68
2022/06/10 10:55:57;;;;;;;7.83;4.20;;;24.70;79.60;;;;;;5039024;28;20480;-68
2022/06/10 10:58:29;;;;;;;8.47;3.73;;;24.70;78.00;;;;;;5036713;28;20483;-69
2022/06/10 11:00:59;;;;;;;7.60;3.80;;;25.00;79.90;;;;;;5035187;28;20475;-68
2022/06/10 11:03:29;;;;;;;16.33;5.27;;;25.40;78.60;;;;;;5033991;28;20442;-67
2022/06/10 11:05:57;;;;;;;6.07;3.30;;;25.60;78.70;;;;;;5042155;28;20982;-69
2022/06/10 11:08:30;;;;;;;12.80;4.73;;;26.00;78.90;;;;;;5039127;28;20483;-68
2022/06/10 11:11:23;;;;;;;7.07;4.37;;;26.10;72.70;;;;;;5036021;28;20506;-68
2022/06/10 11:13:55;;;;;;;9.10;4.47;;;26.20;76.20;;;;;;5040478;28;20478;-69
2022/06/10 11:16:35;;;;;;;6.97;5.07;;;;;;;;;;5031134;28;20475;-68
2022/06/10 11:19:11;;;;;;;5.43;4.07;;;26.10;71.50;;;;;;5031846;28;20483;-66
2022/06/10 11:21:48;;;;;;;7.73;4.30;;;;;;;;;;5027347;28;20561;-66
2022/06/10 11:24:19;;;;;;;6.60;5.00;;;26.30;77.60;;;;;;5020632;28;21273;-67
2022/06/10 11:26:52;;;;;;;5.37;4.83;;;26.50;79.10;;;;;;5020616;28;20482;-67
2022/06/10 11:29:21;;;;;;;13.10;6.53;;;26.60;73.40;;;;;;5019254;28;20794;-67
2022/06/10 11:31:51;;;;;;;6.27;4.40;;;26.60;74.50;;;;;;5025395;28;20484;-68
2022/06/10 11:34:22;;;;;;;7.97;4.60;;;26.70;78.30;;;;;;5022034;28;20481;-67
2022/06/10 11:36:53;;;;;;;7.37;3.57;;;26.80;76.90;;;;;;5027115;28;20913;-67
2022/06/10 11:39:23;;;;;;;11.63;5.23;;;27.10;74.80;;;;;;5024330;28;20561;-67
2022/06/10 11:42:09;;;;;;;9.37;5.30;;;27.30;75.60;;;;;;5030009;28;20490;-67
2022/06/10 11:44:43;;;;;;;11.20;6.50;;;27.50;73.00;;;;;;5015557;28;20529;-66
2022/06/10 11:47:16;;;;;;;13.00;3.23;;;27.30;71.70;;;;;;5013726;28;20484;-67
2022/06/10 11:49:49;;;;;;;4.83;3.67;;;27.10;70.50;;;;;;5013985;28;20841;-66
2022/06/10 11:52:23;;;;;;;8.13;4.57;;;27.00;70.10;;;;;;5025869;28;20872;-67
2022/06/10 11:54:57;;;;;;;10.40;6.00;;;26.60;68.30;;;;;;5025593;28;20475;-67
2022/06/10 12:00:23;;;;;;;8.97;5.50;;;26.40;71.00;;;;;;5008089;28;20490;-67
2022/06/10 12:03:00;;;;;;;10.33;4.33;;;26.40;72.80;;;;;;5012445;28;20957;-67
2022/06/10 12:05:38;;;;;;;6.33;4.47;;;26.20;67.30;;;;;;4995306;28;20453;-67
2022/06/10 12:08:16;;;;;;;3.70;2.10;;;25.90;65.90;;;;;;4997962;28;21039;-67
2022/06/10 12:10:49;;;;;;;5.43;3.23;;;25.90;71.10;;;;;;5005170;28;20789;-66
2022/06/10 12:13:17;;;;;;;7.30;5.60;;;25.90;74.20;;;;;;5018011;28;20518;-67
2022/06/10 12:15:51;;;;;;;5.80;5.20;;;26.20;74.90;;;;;;5012615;28;20891;-66
2022/06/10 12:18:19;;;;;;;6.77;4.93;;;26.40;74.40;;;;;;5004731;28;20472;-66
2022/06/10 12:20:49;;;;;;;14.77;4.33;;;26.90;70.20;;;;;;5007711;28;20512;-66
2022/06/10 12:23:22;;;;;;;9.37;4.53;;;27.30;70.10;;;;;;5005162;28;20849;-66
2022/06/10 12:25:55;;;;;;;6.60;4.47;;;27.50;68.80;;;;;;5008774;28;20900;-67
2022/06/10 12:28:30;;;;;;;8.27;3.00;;;27.40;68.60;;;;;;5016800;28;20485;-67
2022/06/10 12:31:03;;;;;;;4.07;3.43;;;27.40;67.70;;;;;;4976068;28;20763;-66
2022/06/10 12:33:38;;;;;;;13.00;3.20;;;27.30;68.70;;;;;;4974953;28;21193;-66
2022/06/10 12:36:09;;;;;;;8.40;3.47;;;26.90;68.60;;;;;;5019332;28;20648;-67
2022/06/10 12:38:40;;;;;;;4.00;1.90;;;27.10;68.00;;;;;;5015928;28;20519;-67
2022/06/10 12:41:14;;;;;;;4.43;2.00;;;27.10;66.50;;;;;;5018685;28;20480;-67
2022/06/10 12:43:45;;;;;;;3.57;2.27;;;27.10;67.00;;;;;;5013539;28;20483;-67
2022/06/10 12:46:42;;;;;;;8.43;3.30;;;27.10;71.50;;;;;;5025394;28;20877;-66
2022/06/10 12:49:17;;;;;;;10.50;2.33;;;26.90;64.70;;;;;;5013714;28;20938;-66
2022/06/10 12:51:49;;;;;;;13.43;4.93;;;26.90;69.40;;;;;;5011810;28;20465;-66
2022/06/10 12:54:24;;;;;;;4.93;3.50;;;27.00;63.40;;;;;;5018100;28;20607;-66
2022/06/10 12:57:29;;;;;;;9.00;4.70;;;26.40;64.80;;;;;;5018240;28;20461;-67
2022/06/10 13:00:35;;;;;;;3.97;3.47;;;26.60;71.60;;;;;;5006146;28;20580;-67
2022/06/10 13:03:22;;;;;;;6.57;1.90;;;26.80;68.50;;;;;;5015255;28;20454;-67
2022/06/10 13:05:50;;;;;;;4.03;2.27;;;27.00;71.00;;;;;;4996675;28;20899;-66
2022/06/10 13:08:50;;;;;;;3.50;1.83;;;27.40;71.30;;;;;;5022676;28;20455;-66
2022/06/10 13:11:36;;;;;;;10.77;2.77;;;27.80;71.20;;;;;;5025612;28;21070;-67
2022/06/10 13:14:35;;;;;;;4.20;2.33;;;28.20;66.80;;;;;;5024017;28;20458;-66
2022/06/10 13:17:30;;;;;;;2.50;1.67;;;28.30;65.60;;;;;;5005175;28;20454;-66
2022/06/10 13:20:19;;;;;;;2.70;1.97;;;28.40;68.00;;;;;;4967073;28;20514;-67
2022/06/10 13:23:06;;;;;;;9.63;2.60;;;28.30;63.60;;;;;;5013208;28;20812;-67
2022/06/10 13:25:33;;;;;;;3.20;1.40;;;28.10;61.50;;;;;;5027496;28;20447;-67
2022/06/10 13:28:00;;;;;;;10.37;1.93;;;;;;;;;;5029797;28;20469;-67
2022/06/10 13:30:30;;;;;;;4.60;1.80;;;27.70;63.80;;;;;;5024669;28;20501;-67